Hiyodori — JD2366 — position and weather

sailwx.info

Track history (hours):
 
Tides and Currents Weather Stations Pressure Air Temp Water Temp Dewpoint Dewpoint Depression Visibility Wind Speed Wind Dir Waves Ship Positions

Hiyodori

Last reported at 2017-Feb-22 19:32 UTC. Time now 2017-Feb-22 20:02 UTC.
Position N 35°33' E 139°53'.

Length 88 m; draft 3.6 m.

Type: Cargo ship. MMSI: 431000132.

Date/timePositionNaut miles runAvg speedWind from/ knotsBaromVisibWave heightAir tempDewpointWater temp
2017-Feb-22 19:32N 35°33' E 139°53'0 0.0
2017-Feb-22 18:30N 35°33' E 139°53'0 0.0
2017-Feb-22 17:34N 35°33' E 139°53'0 0.0
2017-Feb-22 16:31N 35°33' E 139°53'0 0.0
2017-Feb-22 15:33N 35°33' E 139°53'0 0.0
2017-Feb-22 14:32N 35°33' E 139°53'0 0.0
2017-Feb-22 13:32N 35°33' E 139°53'2 1.9
2017-Feb-22 12:33N 35°32' E 139°53'1212.3
2017-Feb-22 11:34N 35°21' E 139°45'1111.1
2017-Feb-22 10:33N 35°10' E 139°46'1212.2
2017-Feb-22 09:33N 35°01' E 139°36'9 0.4
2017-Feb-21 13:20N 34°56' E 139°26'1012.6
2017-Feb-21 12:32N 35°03' E 139°36'1212.3
2017-Feb-21 11:33N 35°12' E 139°46'1211.9
2017-Feb-21 10:33N 35°23' E 139°42'1212.0
2017-Feb-21 09:33N 35°33' E 139°50'5 4.7
2017-Feb-21 08:33N 35°36' E 139°46'0 0.0
2017-Feb-21 07:33N 35°36' E 139°46'3 3.3
2017-Feb-21 06:33N 35°34' E 139°49'9 9.1
2017-Feb-21 05:33N 35°25' E 139°47'10 9.5
2017-Feb-21 04:34N 35°16' E 139°47'10 9.7
2017-Feb-21 03:33N 35°06' E 139°44'  
2017-Feb-18 15:15N 34°56' E 139°27'912.6
2017-Feb-18 14:33N 35°02' E 139°35'1212.2
2017-Feb-18 13:34N 35°11' E 139°45'1111.1
2017-Feb-18 12:34N 35°22' E 139°42'5 4.6
2017-Feb-18 11:33N 35°26' E 139°41'0 0.0
2017-Feb-18 10:33N 35°26' E 139°41'1 1.4
2017-Feb-18 09:33N 35°26' E 139°42'9 9.4
2017-Feb-18 08:33N 35°17' E 139°45'1212.1
2017-Feb-18 07:33N 35°05' E 139°44'  
2017-Feb-15 19:29N 35°05' E 139°44'1112.0
2017-Feb-15 18:34N 35°16' E 139°45'9 8.8
2017-Feb-15 17:33N 35°24' E 139°41'0 0.0
2017-Feb-15 16:33N 35°24' E 139°41'2 1.6
2017-Feb-15 15:33N 35°23' E 139°42'1 1.5
2017-Feb-15 14:33N 35°22' E 139°44'0 0.0
2017-Feb-15 13:33N 35°22' E 139°44'0 0.0
2017-Feb-15 12:33N 35°22' E 139°44'0 0.0
2017-Feb-15 11:33N 35°22' E 139°44'0 0.0
2017-Feb-15 10:33N 35°22' E 139°44'1 0.5
2017-Feb-15 09:33N 35°22' E 139°44'1611.8
2017-Feb-15 08:12N 35°06' E 139°46'3 0.1
2017-Feb-13 08:19N 35°03' E 139°43'1012.6
2017-Feb-13 07:33N 35°12' E 139°46'1111.4
2017-Feb-13 06:33N 35°23' E 139°41'1 1.1
2017-Feb-13 05:31N 35°24' E 139°41'0 0.0
2017-Feb-13 04:28N 35°24' E 139°41'1 0.8
2017-Feb-13 03:33N 35°24' E 139°42'2 2.4
2017-Feb-13 02:33N 35°26' E 139°41'0 0.0
2017-Feb-13 01:33N 35°26' E 139°41'0 0.0
2017-Feb-13 00:33N 35°26' E 139°41'0 0.0
2017-Feb-12 23:33N 35°26' E 139°41'0 0.0
2017-Feb-12 22:33N 35°26' E 139°41'3 2.8
2017-Feb-12 21:31N 35°29' E 139°39'0 0.0
2017-Feb-12 20:31N 35°29' E 139°39'  
Track history (hours):
 
Tides and Currents Weather Stations Pressure Air Temp Water Temp Dewpoint Dewpoint Depression Visibility Wind Speed Wind Dir Waves Ship Positions

Hiyodori

Last reported at 2017-Feb-22 19:32 UTC. Time now 2017-Feb-22 20:02 UTC.
Position N 35°33' E 139°53'.

Length 88 m; draft 3.6 m.

Type: Cargo ship. MMSI: 431000132.

Date/timePositionNaut miles runAvg speedWind from/ knotsBaromVisibWave heightAir tempDewpointWater temp
2017-Feb-22 19:32N 35°33' E 139°53'0 0.0
2017-Feb-22 18:30N 35°33' E 139°53'0 0.0
2017-Feb-22 17:34N 35°33' E 139°53'0 0.0
2017-Feb-22 16:31N 35°33' E 139°53'0 0.0
2017-Feb-22 15:33N 35°33' E 139°53'0 0.0
2017-Feb-22 14:32N 35°33' E 139°53'0 0.0
2017-Feb-22 13:32N 35°33' E 139°53'2 1.9
2017-Feb-22 12:33N 35°32' E 139°53'1212.3
2017-Feb-22 11:34N 35°21' E 139°45'1111.1
2017-Feb-22 10:33N 35°10' E 139°46'1212.2
2017-Feb-22 09:33N 35°01' E 139°36'9 0.4
2017-Feb-21 13:20N 34°56' E 139°26'1012.6
2017-Feb-21 12:32N 35°03' E 139°36'1212.3
2017-Feb-21 11:33N 35°12' E 139°46'1211.9
2017-Feb-21 10:33N 35°23' E 139°42'1212.0
2017-Feb-21 09:33N 35°33' E 139°50'5 4.7
2017-Feb-21 08:33N 35°36' E 139°46'0 0.0
2017-Feb-21 07:33N 35°36' E 139°46'3 3.3
2017-Feb-21 06:33N 35°34' E 139°49'9 9.1
2017-Feb-21 05:33N 35°25' E 139°47'10 9.5
2017-Feb-21 04:34N 35°16' E 139°47'10 9.7
2017-Feb-21 03:33N 35°06' E 139°44'  
2017-Feb-18 15:15N 34°56' E 139°27'912.6
2017-Feb-18 14:33N 35°02' E 139°35'1212.2
2017-Feb-18 13:34N 35°11' E 139°45'1111.1
2017-Feb-18 12:34N 35°22' E 139°42'5 4.6
2017-Feb-18 11:33N 35°26' E 139°41'0 0.0
2017-Feb-18 10:33N 35°26' E 139°41'1 1.4
2017-Feb-18 09:33N 35°26' E 139°42'9 9.4
2017-Feb-18 08:33N 35°17' E 139°45'1212.1
2017-Feb-18 07:33N 35°05' E 139°44'  
2017-Feb-15 19:29N 35°05' E 139°44'1112.0
2017-Feb-15 18:34N 35°16' E 139°45'9 8.8
2017-Feb-15 17:33N 35°24' E 139°41'0 0.0
2017-Feb-15 16:33N 35°24' E 139°41'2 1.6
2017-Feb-15 15:33N 35°23' E 139°42'1 1.5
2017-Feb-15 14:33N 35°22' E 139°44'0 0.0
2017-Feb-15 13:33N 35°22' E 139°44'0 0.0
2017-Feb-15 12:33N 35°22' E 139°44'0 0.0
2017-Feb-15 11:33N 35°22' E 139°44'0 0.0
2017-Feb-15 10:33N 35°22' E 139°44'1 0.5
2017-Feb-15 09:33N 35°22' E 139°44'1611.8
2017-Feb-15 08:12N 35°06' E 139°46'3 0.1
2017-Feb-13 08:19N 35°03' E 139°43'1012.6
2017-Feb-13 07:33N 35°12' E 139°46'1111.4
2017-Feb-13 06:33N 35°23' E 139°41'1 1.1
2017-Feb-13 05:31N 35°24' E 139°41'0 0.0
2017-Feb-13 04:28N 35°24' E 139°41'1 0.8
2017-Feb-13 03:33N 35°24' E 139°42'2 2.4
2017-Feb-13 02:33N 35°26' E 139°41'0 0.0
2017-Feb-13 01:33N 35°26' E 139°41'0 0.0
2017-Feb-13 00:33N 35°26' E 139°41'0 0.0
2017-Feb-12 23:33N 35°26' E 139°41'0 0.0
2017-Feb-12 22:33N 35°26' E 139°41'3 2.8
2017-Feb-12 21:31N 35°29' E 139°39'0 0.0
2017-Feb-12 20:31N 35°29' E 139°39'  

Dump ship's entire track history